GMTA/AHU METAR and TAF weather

Enter ICAO airport designator
Station Type Date Time Source
GMTA METAR 2018/06/25 02:00 UTC NOAA

GMTA 250200Z VRB02KT 9000 SCT010 BKN023 23/21 Q1015 NOSIG


Station Type Date Time Source
GMTA Decoded METAR 2018/06/25 02:00 UTC NOAA

Al Hoceima, Morocco (GMTA) 35-11N 003-51W 14M
Jun 24, 2018 - 10:00 PM EDT / 2018.06.25 0200 UTC
Wind: Variable at 2 MPH (2 KT):0
Visibility: 5 mile(s):0
Sky conditions: mostly cloudy
Temperature: 73 F (23 C)
Dew Point: 69 F (21 C)
Relative Humidity: 88%
Pressure (altimeter): 29.97 in. Hg (1015 hPa)
ob: GMTA 250200Z VRB02KT 9000 SCT010 BKN023 23/21 Q1015 NOSIG
cycle: 2

Station Type Date Time Source
GMTA TAF 2018/06/24 18:18 UTC NOAA

TAF GMTA 241700Z 2418/2524 01010KT 8000 NSC
BECMG 2418/2421 OVC010 PROB30 2500/2506 VRB01KT 3000 BR OVC008
BECMG 2517/2521 SCT013


Example: see airport list